Time;durP1;ratioP1;P1;durP2;ratioP2;P2;SDS_P1;SDS_P2;PMS_P1;PMS_P2;Temp;Humidity;BMP_temperature;BMP_pressure;BME280_temperature;BME280_humidity;BME280_pressure;Samples;Min_cycle;Max_cycle;Signal;HPM_P1;HPM_P2
2021/07/10 00:00:18;;;;;;;13.27;11.98;;;;;;;;;;5052550;28;20740;-86
2021/07/10 00:02:44;;;;;;;13.10;11.90;;;;;;;;;;5053337;28;20979;-85
2021/07/10 00:05:12;;;;;;;13.93;12.20;;;;;;;;;;5053158;28;21013;-83
2021/07/10 00:07:38;;;;;;;13.45;12.05;;;;;;;;;;5053769;28;20456;-85
2021/07/10 00:10:06;;;;;;;14.03;12.60;;;;;;;;;;5070637;28;20791;-83
2021/07/10 00:12:32;;;;;;;13.18;11.85;;;;;;;;;;5071157;28;20461;-84
2021/07/10 00:14:58;;;;;;;15.18;13.73;;;;;;;;;;5053082;28;20463;-85
2021/07/10 00:17:24;;;;;;;15.32;13.93;;;;;;;;;;5052620;28;20379;-83
2021/07/10 00:19:52;;;;;;;14.75;13.35;;;;;;;;;;5070769;28;20428;-84
2021/07/10 00:22:19;;;;;;;15.20;13.80;;;;;;;;;;5053141;28;20880;-84
2021/07/10 00:24:45;;;;;;;15.40;13.85;;;;;;;;;;5071506;28;20816;-84
2021/07/10 00:27:11;;;;;;;13.88;12.68;;;;;;;;;;5053273;28;20900;-87
2021/07/10 00:29:37;;;;;;;15.50;14.00;;;;;;;;;;5071150;28;20915;-88
2021/07/10 00:32:03;;;;;;;14.35;12.85;;;;;;;;;;5053549;28;20374;-84
2021/07/10 00:34:29;;;;;;;14.85;13.50;;;;;;;;;;5053695;28;20792;-84
2021/07/10 00:36:55;;;;;;;14.82;13.32;;;;;;;;;;5071442;28;20370;-85
2021/07/10 00:39:21;;;;;;;15.18;13.77;;;;;;;;;;5053019;28;20891;-86
2021/07/10 00:41:48;;;;;;;14.63;13.23;;;;;;;;;;5070239;28;20379;-85
2021/07/10 00:44:14;;;;;;;14.45;12.95;;;;;;;;;;5052213;28;20375;-87
2021/07/10 00:46:41;;;;;;;17.58;13.40;;;;;;;;;;5054047;28;20906;-86
2021/07/10 00:49:07;;;;;;;15.52;14.02;;;;;;;;;;5053978;28;20405;-82
2021/07/10 00:51:33;;;;;;;15.48;13.93;;;;;;;;;;5054007;28;20489;-82
2021/07/10 00:53:59;;;;;;;15.30;13.70;;;;;;;;;;5054359;28;20873;-85
2021/07/10 00:56:26;;;;;;;15.43;14.00;;;;;;;;;;5053997;28;20374;-84
2021/07/10 00:58:52;;;;;;;16.13;14.38;;;;;;;;;;5053650;28;20394;-84
2021/07/10 01:01:18;;;;;;;16.60;14.87;;;;;;;;;;5071783;28;20385;-85
2021/07/10 01:03:45;;;;;;;16.75;15.05;;;;;;;;;;5072012;28;20385;-89
2021/07/10 01:06:13;;;;;;;16.65;14.93;;;;;;;;;;5071399;28;20371;-85
2021/07/10 01:08:40;;;;;;;16.35;14.82;;;;;;;;;;5071281;28;20409;-83
2021/07/10 01:11:06;;;;;;;16.10;14.60;;;;;;;;;;5053031;28;20477;-87
2021/07/10 01:13:32;;;;;;;16.63;15.02;;;;;;;;;;5071007;28;20833;-84
2021/07/10 01:15:58;;;;;;;17.73;15.85;;;;;;;;;;5071157;28;20459;-83
2021/07/10 01:18:24;;;;;;;17.92;15.95;;;;;;;;;;5053341;28;20767;-84
2021/07/10 01:20:53;;;;;;;18.90;17.05;;;;;;;;;;5071889;28;20370;-83
2021/07/10 01:23:19;;;;;;;19.05;17.10;;;;;;;;;;5054246;28;20402;-86
2021/07/10 01:25:46;;;;;;;18.92;17.13;;;;;;;;;;5053752;28;20372;-83
2021/07/10 01:28:13;;;;;;;19.83;17.30;;;;;;;;;;5054346;28;20401;-83
2021/07/10 01:30:40;;;;;;;19.10;17.30;;;;;;;;;;5072750;28;20374;-85
2021/07/10 01:33:06;;;;;;;19.05;17.15;;;;;;;;;;5071947;28;20457;-81
2021/07/10 01:35:32;;;;;;;19.15;17.20;;;;;;;;;;5054089;28;20468;-86
2021/07/10 01:38:00;;;;;;;19.85;17.75;;;;;;;;;;5071643;28;20859;-84
2021/07/10 01:40:29;;;;;;;20.30;18.20;;;;;;;;;;5053974;28;20407;-87
2021/07/10 01:42:55;;;;;;;21.95;19.73;;;;;;;;;;5071790;28;20469;-83
2021/07/10 01:45:22;;;;;;;22.13;19.98;;;;;;;;;;5052926;28;20720;-83
2021/07/10 01:47:52;;;;;;;21.98;19.67;;;;;;;;;;5054247;28;20797;-85
2021/07/10 01:50:18;;;;;;;24.55;20.90;;;;;;;;;;5071186;28;20406;-83
2021/07/10 01:52:45;;;;;;;23.67;21.27;;;;;;;;;;5071635;28;20371;-85
2021/07/10 01:55:12;;;;;;;23.20;20.80;;;;;;;;;;5053139;28;20397;-85
2021/07/10 01:57:39;;;;;;;24.15;21.58;;;;;;;;;;5053477;28;20370;-83
2021/07/10 02:00:15;;;;;;;24.47;21.83;;;;;;;;;;5070569;28;20474;-84
2021/07/10 02:02:42;;;;;;;25.27;22.55;;;;;;;;;;5052825;28;20390;-85
2021/07/10 02:05:08;;;;;;;26.95;22.48;;;;;;;;;;5052451;28;20378;-84
2021/07/10 02:07:34;;;;;;;26.60;23.73;;;;;;;;;;5070039;28;20393;-84
2021/07/10 02:10:00;;;;;;;26.37;23.40;;;;;;;;;;5051644;28;20410;-86
2021/07/10 02:12:27;;;;;;;24.97;22.33;;;;;;;;;;5052096;28;20431;-87
2021/07/10 02:14:53;;;;;;;28.05;24.38;;;;;;;;;;5070168;28;20381;-85
2021/07/10 02:17:19;;;;;;;29.63;24.25;;;;;;;;;;5070429;28;20458;-86
2021/07/10 02:19:45;;;;;;;26.92;23.15;;;;;;;;;;5070475;28;20453;-87
2021/07/10 02:22:11;;;;;;;25.83;23.03;;;;;;;;;;5070986;28;20919;-89
2021/07/10 02:24:38;;;;;;;25.27;22.67;;;;;;;;;;5056172;28;20570;-85
2021/07/10 02:27:04;;;;;;;25.30;22.70;;;;;;;;;;5055963;28;20410;-88
2021/07/10 02:29:30;;;;;;;28.45;23.60;;;;;;;;;;5055582;28;20398;-84
2021/07/10 02:31:56;;;;;;;25.02;22.25;;;;;;;;;;5073856;28;20401;-85
2021/07/10 02:34:22;;;;;;;26.17;22.73;;;;;;;;;;5055386;28;20420;-83
2021/07/10 02:36:48;;;;;;;27.53;24.47;;;;;;;;;;5073298;28;20370;-87
2021/07/10 02:39:14;;;;;;;25.30;22.57;;;;;;;;;;5073083;28;20377;-83
2021/07/10 02:41:40;;;;;;;25.38;22.23;;;;;;;;;;5073488;28;20381;-86
2021/07/10 02:44:06;;;;;;;24.13;21.63;;;;;;;;;;5055470;28;20457;-83
2021/07/10 02:46:33;;;;;;;24.67;22.17;;;;;;;;;;5055285;28;20451;-85
2021/07/10 02:48:59;;;;;;;24.98;22.08;;;;;;;;;;5072954;28;20489;-84
2021/07/10 02:51:28;;;;;;;23.57;21.03;;;;;;;;;;5055403;28;20940;-86
2021/07/10 02:53:55;;;;;;;23.05;20.65;;;;;;;;;;5055350;28;20480;-81
2021/07/10 02:56:21;;;;;;;24.92;22.13;;;;;;;;;;5055078;28;20428;-83
2021/07/10 02:58:48;;;;;;;25.55;21.20;;;;;;;;;;5075443;28;20378;-85
2021/07/10 03:01:14;;;;;;;22.53;20.27;;;;;;;;;;5077583;28;20737;-85
2021/07/10 03:03:40;;;;;;;24.20;21.15;;;;;;;;;;5075076;28;20378;-83
2021/07/10 03:06:06;;;;;;;25.83;21.87;;;;;;;;;;5073321;28;20377;-86
2021/07/10 03:08:32;;;;;;;24.30;21.70;;;;;;;;;;5054872;28;20374;-84
2021/07/10 03:10:59;;;;;;;25.63;22.75;;;;;;;;;;5055326;28;20874;-82
2021/07/10 03:13:26;;;;;;;25.23;22.52;;;;;;;;;;5073101;28;20370;-86
2021/07/10 03:15:54;;;;;;;25.58;21.88;;;;;;;;;;5073208;28;20384;-85
2021/07/10 03:18:20;;;;;;;25.60;22.83;;;;;;;;;;5054852;28;20378;-87
2021/07/10 03:20:46;;;;;;;24.85;22.05;;;;;;;;;;5073258;28;20378;-90
2021/07/10 03:23:12;;;;;;;25.25;22.55;;;;;;;;;;5054691;28;20453;-84
2021/07/10 03:25:39;;;;;;;25.55;22.65;;;;;;;;;;5055230;28;20374;-86
2021/07/10 03:28:05;;;;;;;26.58;23.77;;;;;;;;;;5073001;28;20365;-86
2021/07/10 03:30:31;;;;;;;27.70;23.77;;;;;;;;;;5055485;28;20484;-84
2021/07/10 03:32:57;;;;;;;26.67;23.85;;;;;;;;;;5072727;28;20366;-83
2021/07/10 03:35:24;;;;;;;26.20;23.40;;;;;;;;;;5053732;28;20382;-84
2021/07/10 03:37:51;;;;;;;27.17;24.25;;;;;;;;;;5072270;28;20465;-86
2021/07/10 03:40:18;;;;;;;28.17;24.40;;;;;;;;;;5054309;28;20382;-85
2021/07/10 03:42:44;;;;;;;27.17;24.35;;;;;;;;;;5072305;28;20450;-84
2021/07/10 03:45:11;;;;;;;27.60;24.67;;;;;;;;;;5072195;28;20426;-84
2021/07/10 03:47:37;;;;;;;28.23;25.13;;;;;;;;;;5054567;28;20381;-87
2021/07/10 03:50:08;;;;;;;29.67;26.13;;;;;;;;;;5071929;28;20481;-86
2021/07/10 03:52:34;;;;;;;26.90;24.10;;;;;;;;;;5053830;28;20386;-85
2021/07/10 03:55:01;;;;;;;28.13;24.57;;;;;;;;;;5072097;28;20484;-84
2021/07/10 03:57:27;;;;;;;27.48;24.55;;;;;;;;;;5054237;28;20740;-83
2021/07/10 03:59:53;;;;;;;26.08;22.95;;;;;;;;;;5054215;28;20425;-87
2021/07/10 04:02:19;;;;;;;27.85;24.48;;;;;;;;;;5071773;28;20872;-85
2021/07/10 04:04:45;;;;;;;28.00;23.95;;;;;;;;;;5071858;28;21073;-82
2021/07/10 04:07:11;;;;;;;29.40;24.57;;;;;;;;;;5071850;28;20386;-84
2021/07/10 04:09:37;;;;;;;30.97;25.27;;;;;;;;;;5053330;28;20900;-81
2021/07/10 04:12:03;;;;;;;27.52;23.50;;;;;;;;;;5071896;28;20753;-82
2021/07/10 04:14:31;;;;;;;26.67;23.00;;;;;;;;;;5071520;28;20366;-83
2021/07/10 04:16:57;;;;;;;26.48;22.63;;;;;;;;;;5053358;28;20397;-83
2021/07/10 04:19:23;;;;;;;25.13;22.52;;;;;;;;;;5071437;28;20445;-87
2021/07/10 04:21:50;;;;;;;25.35;22.75;;;;;;;;;;5053737;28;20462;-85
2021/07/10 04:24:17;;;;;;;27.20;23.27;;;;;;;;;;5053605;28;20398;-85
2021/07/10 04:26:43;;;;;;;31.85;25.58;;;;;;;;;;5071521;28;20397;-81
2021/07/10 04:29:09;;;;;;;27.17;23.50;;;;;;;;;;5053476;28;20405;-85
2021/07/10 04:31:35;;;;;;;31.10;25.20;;;;;;;;;;5053319;28;20366;-84
2021/07/10 04:34:01;;;;;;;27.85;24.83;;;;;;;;;;5053182;28;20908;-86
2021/07/10 04:36:27;;;;;;;28.98;24.98;;;;;;;;;;5053144;28;20370;-81
2021/07/10 04:38:53;;;;;;;27.27;24.38;;;;;;;;;;5053410;28;20436;-84
2021/07/10 04:41:19;;;;;;;29.58;24.98;;;;;;;;;;5053249;28;21258;-85
2021/07/10 04:43:45;;;;;;;27.85;24.98;;;;;;;;;;5053211;28;20449;-85
2021/07/10 04:46:11;;;;;;;30.00;25.25;;;;;;;;;;5070126;28;20923;-87
2021/07/10 04:48:37;;;;;;;29.83;25.10;;;;;;;;;;5052641;28;20439;-84
2021/07/10 04:51:03;;;;;;;26.00;22.30;;;;;;;;;;5053307;28;20744;-84
2021/07/10 04:53:29;;;;;;;26.27;23.17;;;;;;;;;;5052903;28;20370;-84
2021/07/10 04:55:55;;;;;;;27.20;22.95;;;;;;;;;;5071147;28;20389;-89
2021/07/10 04:58:22;;;;;;;27.40;22.77;;;;;;;;;;5052995;28;20389;-85
2021/07/10 05:00:49;;;;;;;25.08;22.45;;;;;;;;;;5052688;28;20366;-84
2021/07/10 05:03:16;;;;;;;24.48;21.77;;;;;;;;;;5071031;28;20417;-88
2021/07/10 05:05:42;;;;;;;26.17;21.90;;;;;;;;;;5053102;28;20378;-86
2021/07/10 05:08:09;;;;;;;24.95;21.75;;;;;;;;;;5052796;28;20398;-84
2021/07/10 05:10:35;;;;;;;24.42;20.77;;;;;;;;;;5052603;28;20398;-87
2021/07/10 05:13:01;;;;;;;25.70;21.95;;;;;;;;;;5053240;28;20740;-85
2021/07/10 05:15:27;;;;;;;23.80;21.05;;;;;;;;;;5052786;28;20904;-85
2021/07/10 05:17:53;;;;;;;25.10;22.58;;;;;;;;;;5052790;28;20401;-86
2021/07/10 05:20:19;;;;;;;28.33;22.47;;;;;;;;;;5052824;28;20414;-85
2021/07/10 05:22:45;;;;;;;23.63;21.25;;;;;;;;;;5052724;28;20370;-87
2021/07/10 05:25:12;;;;;;;27.75;22.13;;;;;;;;;;5052532;28;20358;-86
2021/07/10 05:27:38;;;;;;;25.73;21.58;;;;;;;;;;5052816;28;20420;-86
2021/07/10 05:30:15;;;;;;;22.02;19.75;;;;;;;;;;5052547;28;20485;-86
2021/07/10 05:32:41;;;;;;;23.40;20.63;;;;;;;;;;5052612;28;20435;-85
2021/07/10 05:35:08;;;;;;;23.65;21.15;;;;;;;;;;5052545;28;20381;-84
2021/07/10 05:37:34;;;;;;;24.70;22.02;;;;;;;;;;5052514;28;20405;-86
2021/07/10 05:40:00;;;;;;;22.23;19.92;;;;;;;;;;5052615;28;20891;-85
2021/07/10 05:42:26;;;;;;;23.65;20.27;;;;;;;;;;5070093;28;20381;-85
2021/07/10 05:44:52;;;;;;;23.20;20.65;;;;;;;;;;5070423;28;20967;-84
2021/07/10 05:47:18;;;;;;;22.95;20.65;;;;;;;;;;5052644;28;20468;-85
2021/07/10 05:49:44;;;;;;;23.38;20.88;;;;;;;;;;5052381;28;20548;-85
2021/07/10 05:52:10;;;;;;;22.17;19.87;;;;;;;;;;5052539;28;20374;-81
2021/07/10 05:54:36;;;;;;;22.15;19.83;;;;;;;;;;5070320;28;20943;-85
2021/07/10 05:57:02;;;;;;;21.25;19.00;;;;;;;;;;5070387;28;20477;-86
2021/07/10 05:59:28;;;;;;;20.70;18.52;;;;;;;;;;5074219;28;20732;-84
2021/07/10 06:01:54;;;;;;;20.45;17.50;;;;;;;;;;5056400;28;20386;-84
2021/07/10 06:04:20;;;;;;;21.90;18.53;;;;;;;;;;5074122;28;20967;-85
2021/07/10 06:06:46;;;;;;;20.50;18.40;;;;;;;;;;5056178;28;20389;-85
2021/07/10 06:09:12;;;;;;;19.70;17.85;;;;;;;;;;5073802;28;20896;-86
2021/07/10 06:11:38;;;;;;;21.63;19.05;;;;;;;;;;5074045;28;20401;-86
2021/07/10 06:14:08;;;;;;;21.23;18.90;;;;;;;;;;5060085;28;20385;-82
2021/07/10 06:16:35;;;;;;;18.63;16.70;;;;;;;;;;5078640;28;20443;-85
2021/07/10 06:19:01;;;;;;;16.57;14.87;;;;;;;;;;5058458;28;20386;-86
2021/07/10 06:21:27;;;;;;;16.75;15.00;;;;;;;;;;5056060;28;20392;-85
2021/07/10 06:23:53;;;;;;;17.93;16.03;;;;;;;;;;5056141;28;20381;-85
2021/07/10 06:26:20;;;;;;;16.58;14.77;;;;;;;;;;5073998;28;20377;-87
2021/07/10 06:28:48;;;;;;;15.73;14.23;;;;;;;;;;5055735;28;20382;-85
2021/07/10 06:31:13;;;;;;;16.38;14.68;;;;;;;;;;5074109;28;20458;-85
2021/07/10 06:33:39;;;;;;;16.98;14.77;;;;;;;;;;5055886;28;20378;-84
2021/07/10 06:36:05;;;;;;;17.35;15.45;;;;;;;;;;5056122;28;20440;-85
2021/07/10 06:38:31;;;;;;;15.18;13.70;;;;;;;;;;5055641;28;20739;-87
2021/07/10 06:40:57;;;;;;;16.15;14.57;;;;;;;;;;5055649;28;20370;-86
2021/07/10 06:43:23;;;;;;;16.90;14.93;;;;;;;;;;5073761;28;20776;-87
2021/07/10 06:45:49;;;;;;;18.13;14.07;;;;;;;;;;5056837;28;20418;-85
2021/07/10 06:48:18;;;;;;;15.73;13.90;;;;;;;;;;5055853;28;20400;-89
2021/07/10 06:50:44;;;;;;;15.65;13.95;;;;;;;;;;5056247;28;20749;-85
2021/07/10 06:53:10;;;;;;;18.45;13.95;;;;;;;;;;5055877;28;20374;-87
2021/07/10 06:55:36;;;;;;;14.32;12.82;;;;;;;;;;5055820;28;20402;-88
2021/07/10 06:58:02;;;;;;;15.48;13.25;;;;;;;;;;5055742;28;20382;-88
2021/07/10 07:00:28;;;;;;;14.63;12.83;;;;;;;;;;5055528;28;20382;-84
2021/07/10 07:02:54;;;;;;;15.60;13.82;;;;;;;;;;5056136;28;20770;-90
2021/07/10 07:05:20;;;;;;;13.90;12.00;;;;;;;;;;5055502;28;20375;-86
2021/07/10 07:07:46;;;;;;;15.57;13.98;;;;;;;;;;5073118;28;20416;-86
2021/07/10 07:10:13;;;;;;;15.25;13.68;;;;;;;;;;5054588;28;20429;-85
2021/07/10 07:12:39;;;;;;;13.75;11.60;;;;;;;;;;5073776;28;20378;-85
2021/07/10 07:15:07;;;;;;;12.85;11.52;;;;;;;;;;5055622;28;20457;-87
2021/07/10 07:17:33;;;;;;;16.30;11.80;;;;;;;;;;5073101;28;20473;-86
2021/07/10 07:19:59;;;;;;;14.27;11.82;;;;;;;;;;5073538;28;20362;-84
2021/07/10 07:22:25;;;;;;;13.77;11.60;;;;;;;;;;5055716;28;20375;-89
2021/07/10 07:24:51;;;;;;;16.27;12.30;;;;;;;;;;5072954;28;20365;-86
2021/07/10 07:27:17;;;;;;;12.30;11.05;;;;;;;;;;5055054;28;20892;-89
2021/07/10 07:29:43;;;;;;;12.23;10.63;;;;;;;;;;5054905;28;20410;-87
2021/07/10 07:32:09;;;;;;;12.05;10.70;;;;;;;;;;5072891;28;20366;-88
2021/07/10 07:34:35;;;;;;;13.00;11.20;;;;;;;;;;5055275;28;20472;-87
2021/07/10 07:37:01;;;;;;;14.43;11.48;;;;;;;;;;5055587;28;20731;-87
2021/07/10 07:39:27;;;;;;;15.05;11.43;;;;;;;;;;5072997;28;20453;-86
2021/07/10 07:41:53;;;;;;;12.88;10.55;;;;;;;;;;5054877;28;20484;-85
2021/07/10 07:44:19;;;;;;;10.83;9.80;;;;;;;;;;5054956;28;20376;-85
2021/07/10 07:46:45;;;;;;;9.80;8.90;;;;;;;;;;5054811;28;20382;-85
2021/07/10 07:49:11;;;;;;;11.87;9.47;;;;;;;;;;5072321;28;20407;-87
2021/07/10 07:51:37;;;;;;;11.57;9.68;;;;;;;;;;5054701;28;20791;-84
2021/07/10 07:54:03;;;;;;;11.15;9.25;;;;;;;;;;5073041;28;20366;-86
2021/07/10 07:56:29;;;;;;;9.63;8.32;;;;;;;;;;5054512;28;20428;-87
2021/07/10 07:58:55;;;;;;;9.17;7.97;;;;;;;;;;5072648;28;20370;-86
2021/07/10 08:01:21;;;;;;;13.50;9.10;;;;;;;;;;5054321;28;20460;-86
2021/07/10 08:03:48;;;;;;;10.73;8.30;;;;;;;;;;5072460;28;20860;-87
2021/07/10 08:06:14;;;;;;;13.02;8.13;;;;;;;;;;5072517;28;20370;-89
2021/07/10 08:08:40;;;;;;;9.90;7.75;;;;;;;;;;5054347;28;20382;-85
2021/07/10 08:11:07;;;;;;;8.55;7.65;;;;;;;;;;5054262;28;20472;-85
2021/07/10 08:13:33;;;;;;;9.63;7.22;;;;;;;;;;5054623;28;20428;-83
2021/07/10 08:15:59;;;;;;;9.77;7.82;;;;;;;;;;5054308;28;20409;-85
2021/07/10 08:18:26;;;;;;;10.38;6.95;;;;;;;;;;5054673;28;20374;-85
2021/07/10 08:20:52;;;;;;;8.50;7.07;;;;;;;;;;5073098;28;20366;-86
2021/07/10 08:23:18;;;;;;;9.82;7.05;;;;;;;;;;5055641;28;20370;-84
2021/07/10 08:25:46;;;;;;;7.60;6.80;;;;;;;;;;5056131;28;20469;-84
2021/07/10 08:28:12;;;;;;;6.78;5.90;;;;;;;;;;5055490;28;20929;-85
2021/07/10 08:30:38;;;;;;;6.60;6.00;;;;;;;;;;5053687;28;20402;-86
2021/07/10 08:33:04;;;;;;;8.80;6.47;;;;;;;;;;5053656;28;20869;-89
2021/07/10 08:35:30;;;;;;;8.60;6.88;;;;;;;;;;5053906;28;20485;-87
2021/07/10 08:37:56;;;;;;;9.50;6.63;;;;;;;;;;5054125;28;20469;-85
2021/07/10 08:40:22;;;;;;;8.70;6.65;;;;;;;;;;5053878;28;20377;-84
2021/07/10 08:42:48;;;;;;;7.20;6.50;;;;;;;;;;5071739;28;20420;-84
2021/07/10 08:45:15;;;;;;;7.65;6.53;;;;;;;;;;5053344;28;20382;-86
2021/07/10 08:47:42;;;;;;;8.53;5.70;;;;;;;;;;5053695;28;20449;-89
2021/07/10 08:50:09;;;;;;;6.25;5.65;;;;;;;;;;5053155;28;20410;-87
2021/07/10 08:52:39;;;;;;;7.45;5.55;;;;;;;;;;5053517;28;20370;-90
2021/07/10 08:55:05;;;;;;;6.32;5.72;;;;;;;;;;5053490;28;20442;-87
2021/07/10 08:57:35;;;;;;;6.23;5.63;;;;;;;;;;5053587;28;20373;-87
2021/07/10 09:00:12;;;;;;;10.48;5.95;;;;;;;;;;5053371;28;20374;-86
2021/07/10 09:02:40;;;;;;;7.80;5.70;;;;;;;;;;5053772;28;20433;-87
2021/07/10 09:05:07;;;;;;;9.30;6.60;;;;;;;;;;5053769;28;20445;-89
2021/07/10 09:07:53;;;;;;;7.88;5.93;;;;;;;;;;5053247;28;20394;-90
2021/07/10 09:10:34;;;;;;;7.10;5.63;;;;;;;;;;5052965;28;20404;-87
2021/07/10 09:13:00;;;;;;;8.07;5.88;;;;;;;;;;5053542;28;20390;-87
2021/07/10 09:15:26;;;;;;;8.05;5.55;;;;;;;;;;5053035;28;20371;-87
2021/07/10 09:17:53;;;;;;;7.57;5.38;;;;;;;;;;5053208;28;20448;-89
2021/07/10 09:20:23;;;;;;;7.10;6.38;;;;;;;;;;5053196;28;20524;-86
2021/07/10 09:22:50;;;;;;;7.70;6.18;;;;;;;;;;5052873;28;20994;-86
2021/07/10 09:25:27;;;;;;;7.32;6.25;;;;;;;;;;5052866;28;20736;-89
2021/07/10 09:27:54;;;;;;;8.73;6.30;;;;;;;;;;5053609;28;20918;-84
2021/07/10 09:30:33;;;;;;;7.30;6.57;;;;;;;;;;5070945;28;20489;-89
2021/07/10 09:33:13;;;;;;;7.38;6.57;;;;;;;;;;5052649;28;20486;-86
2021/07/10 09:35:50;;;;;;;8.30;6.95;;;;;;;;;;5053445;28;20415;-87
2021/07/10 09:38:20;;;;;;;8.63;7.07;;;;;;;;;;5052859;28;20386;-87
2021/07/10 09:41:16;;;;;;;8.38;6.95;;;;;;;;;;5052776;28;20370;-87
2021/07/10 09:43:42;;;;;;;7.07;6.22;;;;;;;;;;5036034;28;20371;-86
2021/07/10 09:46:09;;;;;;;8.63;5.72;;;;;;;;;;5052680;28;20362;-88
2021/07/10 09:48:36;;;;;;;6.50;5.90;;;;;;;;;;5052718;28;20382;-87
2021/07/10 09:51:22;;;;;;;8.10;6.45;;;;;;;;;;5053043;28;20735;-87
2021/07/10 09:54:01;;;;;;;7.35;5.88;;;;;;;;;;5053086;28;20888;-89
2021/07/10 09:56:27;;;;;;;8.57;6.38;;;;;;;;;;5055446;28;20374;-88
2021/07/10 09:58:53;;;;;;;9.43;5.97;;;;;;;;;;5053966;28;20382;-88
2021/07/10 10:01:33;;;;;;;9.05;6.30;;;;;;;;;;5071981;28;20373;-87
2021/07/10 10:04:00;;;;;;;6.00;5.30;;;;;;;;;;5070612;28;20378;-86
2021/07/10 10:06:30;;;;;;;8.02;5.80;;;;;;;;;;5071123;28;20756;-86
2021/07/10 10:08:57;;;;;;;7.95;6.55;;;;;;;;;;5052771;28;20482;-87
2021/07/10 10:11:23;;;;;;;12.20;7.80;;;;;;;;;;5052639;28;20945;-87
2021/07/10 10:13:49;;;;;;;9.45;6.95;;;;;;;;;;5052973;28;20381;-90
2021/07/10 10:16:16;;;;;;;7.28;6.18;;;;;;;;;;5054206;28;20370;-86
2021/07/10 10:18:42;;;;;;;9.73;7.00;;;;;;;;;;5071375;28;20568;-85
2021/07/10 10:21:09;;;;;;;8.65;5.50;;;;;;;;;;5053188;28;20380;-89
2021/07/10 10:23:36;;;;;;;9.13;5.60;;;;;;;;;;5053172;28;20382;-86
2021/07/10 10:26:03;;;;;;;7.22;5.07;;;;;;;;;;5053447;28;20393;-86
2021/07/10 10:28:32;;;;;;;6.47;5.28;;;;;;;;;;5070903;28;20382;-88
2021/07/10 10:30:58;;;;;;;6.88;4.78;;;;;;;;;;5052671;28;20397;-86
2021/07/10 10:33:28;;;;;;;6.43;4.70;;;;;;;;;;5052370;28;20382;-87
2021/07/10 10:35:55;;;;;;;5.07;4.57;;;;;;;;;;5052372;28;20447;-87
2021/07/10 10:38:22;;;;;;;8.27;5.07;;;;;;;;;;5070408;28;20945;-85
2021/07/10 10:40:48;;;;;;;6.23;4.40;;;;;;;;;;5053101;28;20374;-85
2021/07/10 10:43:15;;;;;;;7.38;4.28;;;;;;;;;;5070074;28;20378;-85
2021/07/10 10:45:41;;;;;;;6.50;4.65;;;;;;;;;;5054778;28;20385;-88
2021/07/10 10:48:08;;;;;;;6.05;4.45;;;;;;;;;;5073746;28;20826;-86
2021/07/10 10:50:35;;;;;;;5.33;4.30;;;;;;;;;;5055496;28;20398;-86
2021/07/10 10:53:02;;;;;;;5.83;4.80;;;;;;;;;;5055612;28;20732;-87
2021/07/10 10:55:27;;;;;;;5.40;4.20;;;;;;;;;;5055507;28;20382;-86
2021/07/10 10:58:17;;;;;;;6.05;4.15;;;;;;;;;;5055765;28;20386;-85
2021/07/10 11:00:44;;;;;;;7.28;4.55;;;;;;;;;;5044978;28;20386;-87
2021/07/10 11:03:14;;;;;;;7.63;4.28;;;;;;;;;;5055328;28;20386;-86
2021/07/10 11:05:41;;;;;;;7.27;4.23;;;;;;;;;;5055282;28;20370;-84
2021/07/10 11:08:19;;;;;;;5.28;4.30;;;;;;;;;;5054912;28;20394;-86
2021/07/10 11:10:46;;;;;;;7.32;4.40;;;;;;;;;;5055759;28;20474;-85
2021/07/10 11:13:31;;;;;;;4.88;4.38;;;;;;;;;;5055128;28;20439;-85
2021/07/10 11:16:06;;;;;;;6.07;4.70;;;;;;;;;;5055735;28;20559;-87
2021/07/10 11:18:55;;;;;;;6.22;4.20;;;;;;;;;;5055291;28;20406;-86
2021/07/10 11:21:41;;;;;;;5.30;4.53;;;;;;;;;;5055736;28;20406;-84
2021/07/10 11:24:20;;;;;;;4.93;4.43;;;;;;;;;;5055757;28;20418;-90
2021/07/10 11:26:55;;;;;;;5.38;4.03;;;;;;;;;;5054940;28;20410;-88
2021/07/10 11:29:21;;;;;;;6.13;4.15;;;;;;;;;;5055236;28;20382;-86
2021/07/10 11:31:47;;;;;;;4.60;4.20;;;;;;;;;;5073469;28;20404;-87
2021/07/10 11:34:17;;;;;;;5.18;4.68;;;;;;;;;;5072650;28;20389;-85
2021/07/10 11:36:52;;;;;;;6.82;4.70;;;;;;;;;;5054597;28;20378;-84
2021/07/10 11:39:24;;;;;;;7.20;4.95;;;;;;;;;;5054871;28;20470;-89
2021/07/10 11:41:53;;;;;;;4.72;4.15;;;;;;;;;;5055532;28;20374;-88
2021/07/10 11:44:21;;;;;;;5.93;4.45;;;;;;;;;;5056478;28;21011;-84
2021/07/10 11:46:56;;;;;;;6.70;4.55;;;;;;;;;;5055603;28;20457;-89
2021/07/10 11:49:42;;;;;;;5.97;4.47;;;;;;;;;;5055192;28;20385;-87
2021/07/10 11:52:19;;;;;;;6.35;5.00;;;;;;;;;;5073554;28;20370;-85
2021/07/10 11:54:56;;;;;;;5.38;4.88;;;;;;;;;;5055538;28;20389;-87
2021/07/10 11:57:23;;;;;;;6.85;4.78;;;;;;;;;;5073272;28;20370;-90
2021/07/10 11:59:49;;;;;;;5.20;4.70;;;;;;;;;;5055688;28;20373;-91
2021/07/10 12:02:16;;;;;;;5.90;4.75;;;;;;;;;;5056107;28;20919;-85
2021/07/10 12:04:58;;;;;;;5.60;4.60;;;;;;;;;;5055405;28;20374;-87
2021/07/10 12:07:24;;;;;;;5.67;4.87;;;;;;;;;;5056237;28;20706;-87
2021/07/10 12:09:50;;;;;;;7.05;5.00;;;;;;;;;;5054414;28;20398;-86
2021/07/10 12:12:16;;;;;;;5.28;4.78;;;;;;;;;;5073754;28;20394;-88
2021/07/10 12:14:59;;;;;;;5.95;4.88;;;;;;;;;;5056579;28;20944;-88
2021/07/10 12:17:28;;;;;;;6.07;4.83;;;;;;;;;;5054608;28;20378;-86
2021/07/10 12:19:54;;;;;;;5.15;4.45;;;;;;;;;;5054127;28;20455;-86
2021/07/10 12:22:22;;;;;;;7.38;5.00;;;;;;;;;;5054488;28;20366;-88
2021/07/10 12:24:48;;;;;;;5.03;4.47;;;;;;;;;;5072595;28;20401;-89
2021/07/10 12:27:15;;;;;;;4.72;4.32;;;;;;;;;;5055517;28;20432;-87
2021/07/10 12:29:54;;;;;;;5.70;4.45;;;;;;;;;;5054199;28;20497;-87
2021/07/10 12:32:21;;;;;;;6.13;4.55;;;;;;;;;;5054169;28;20374;-86
2021/07/10 12:34:47;;;;;;;6.60;4.40;;;;;;;;;;5054723;28;20370;-87
2021/07/10 12:37:20;;;;;;;8.15;5.00;;;;;;;;;;5054785;28;20379;-86
2021/07/10 12:39:46;;;;;;;5.03;4.60;;;;;;;;;;5071656;28;20461;-87
2021/07/10 12:42:12;;;;;;;4.97;4.32;;;;;;;;;;5054520;28;20478;-87
2021/07/10 12:44:39;;;;;;;5.60;4.33;;;;;;;;;;5072192;28;20369;-86
2021/07/10 12:47:10;;;;;;;7.43;4.70;;;;;;;;;;5054711;28;20385;-87
2021/07/10 12:49:38;;;;;;;5.82;4.72;;;;;;;;;;5072813;28;21188;-86
2021/07/10 12:52:16;;;;;;;5.53;4.53;;;;;;;;;;5054615;28;20469;-88
2021/07/10 12:54:43;;;;;;;4.65;4.20;;;;;;;;;;5053896;28;20478;-89
2021/07/10 12:57:27;;;;;;;6.27;5.13;;;;;;;;;;5053636;28;20790;-88
2021/07/10 12:59:59;;;;;;;6.45;5.60;;;;;;;;;;5055837;28;20381;-86
2021/07/10 13:02:36;;;;;;;7.83;4.67;;;;;;;;;;5054763;28;20378;-86
2021/07/10 13:05:15;;;;;;;6.40;4.80;;;;;;;;;;5054001;28;20373;-87
2021/07/10 13:07:41;;;;;;;7.72;4.78;;;;;;;;;;5054134;28;20411;-89
2021/07/10 13:10:08;;;;;;;5.18;4.68;;;;;;;;;;5053926;28;20394;-88
2021/07/10 13:12:43;;;;;;;6.72;4.80;;;;;;;;;;5054782;28;20374;-86
2021/07/10 13:15:10;;;;;;;5.10;4.43;;;;;;;;;;5054276;28;20374;-87
2021/07/10 13:17:37;;;;;;;5.20;4.53;;;;;;;;;;5072413;28;20466;-89
2021/07/10 13:20:22;;;;;;;7.22;4.40;;;;;;;;;;5071627;28;20386;-88
2021/07/10 13:22:48;;;;;;;6.05;4.50;;;;;;;;;;5055570;28;20382;-86
2021/07/10 13:25:14;;;;;;;6.88;5.03;;;;;;;;;;5071900;28;20362;-84
2021/07/10 13:27:40;;;;;;;5.22;4.32;;;;;;;;;;5053207;28;20382;-87
2021/07/10 13:30:14;;;;;;;5.97;4.50;;;;;;;;;;5053225;28;20497;-89
2021/07/10 13:32:40;;;;;;;4.93;4.43;;;;;;;;;;5055046;28;20470;-87
2021/07/10 13:35:07;;;;;;;6.13;4.57;;;;;;;;;;5055035;28;20441;-86
2021/07/10 13:37:33;;;;;;;6.32;4.63;;;;;;;;;;5072372;28;20394;-90
2021/07/10 13:39:59;;;;;;;6.43;4.43;;;;;;;;;;5054603;28;20367;-89
2021/07/10 13:42:25;;;;;;;4.90;4.40;;;;;;;;;;5054416;28;20402;-84
2021/07/10 13:44:56;;;;;;;4.60;4.00;;;;;;;;;;5071381;28;20381;-88
2021/07/10 13:47:22;;;;;;;5.00;3.70;;;;;;;;;;5052639;28;21045;-87
2021/07/10 13:49:49;;;;;;;4.65;3.88;;;;;;;;;;5057594;28;20437;-87
2021/07/10 13:52:18;;;;;;;4.45;4.03;;;;;;;;;;5071745;28;20373;-85
2021/07/10 13:54:52;;;;;;;4.88;4.30;;;;;;;;;;5056965;28;20377;-87
2021/07/10 13:57:29;;;;;;;4.65;4.20;;;;;;;;;;5054745;28;20389;-85
2021/07/10 14:00:01;;;;;;;6.13;4.28;;;;;;;;;;5058740;28;20422;-87
2021/07/10 14:02:29;;;;;;;4.63;4.20;;;;;;;;;;5073069;28;20381;-88
2021/07/10 14:04:58;;;;;;;5.93;4.22;;;;;;;;;;5053770;28;20465;-86
2021/07/10 14:07:25;;;;;;;4.90;4.10;;;;;;;;;;5053236;28;20527;-84
2021/07/10 14:09:51;;;;;;;5.45;4.07;;;;;;;;;;5058454;28;20394;-87
2021/07/10 14:12:17;;;;;;;4.43;3.77;;;;;;;;;;5054728;28;20535;-86
2021/07/10 14:14:43;;;;;;;5.40;3.95;;;;;;;;;;5056141;28;20366;-86
2021/07/10 14:17:09;;;;;;;4.50;4.10;;;;;;;;;;5053162;28;20811;-87
2021/07/10 14:19:35;;;;;;;5.53;4.18;;;;;;;;;;5059417;28;20366;-85
2021/07/10 14:22:01;;;;;;;6.63;4.33;;;;;;;;;;5056040;28;20898;-85
2021/07/10 14:24:27;;;;;;;6.35;4.28;;;;;;;;;;5059625;28;20440;-87
2021/07/10 14:26:53;;;;;;;5.43;4.03;;;;;;;;;;5057258;28;20374;-87
2021/07/10 14:29:19;;;;;;;4.50;3.90;;;;;;;;;;5055736;28;20416;-84
2021/07/10 14:31:45;;;;;;;5.43;4.05;;;;;;;;;;5056612;28;20417;-87